Caipirinha — ZCYL2 — position and weather

sailwx.info

Track history (hours):
 
Tides and Currents Weather Stations Pressure Air Temp Water Temp Dewpoint Dewpoint Depression Visibility Wind Speed Wind Dir Waves Ship Positions

Caipirinha

Last reported at 2017-Sep-27 14:04 UTC. Time now 2017-Oct-22 12:13 UTC.
Position N 43°03' E 005°37'.
Warning: this ship's position is 24 days out of date.

Length 60 m; draft 3.5 m.

Type: Pleasure craft. MMSI: 319011100.

Date/timePositionNaut miles runAvg speedWind from/ knotsBaromVisibWave heightAir tempDewpointWater temp
2017-Sep-27 14:04N 43°03' E 005°37'113.0
2017-Sep-27 14:00N 43°03' E 005°37'611.2
2017-Sep-27 13:28N 43°09' E 005°38'172 4.9
2017-Sep-26 02:21N 40°58' E 003°06'410.2
2017-Sep-26 01:59N 40°56' E 003°03'510.2
2017-Sep-26 01:30N 40°52' E 002°58'510.7
2017-Sep-26 01:00N 40°48' E 002°53'611.7
2017-Sep-26 00:30N 40°44' E 002°48'612.1
2017-Sep-26 00:00N 40°39' E 002°43'611.9
2017-Sep-25 23:30N 40°35' E 002°38'611.6
2017-Sep-25 23:00N 40°30' E 002°33'611.4
2017-Sep-25 22:30N 40°26' E 002°28'611.3
2017-Sep-25 22:00N 40°22' E 002°23'611.6
2017-Sep-25 21:30N 40°17' E 002°18'612.8
2017-Sep-25 21:00N 40°13' E 002°13'713.3
2017-Sep-25 20:30N 40°08' E 002°07'713.8
2017-Sep-25 20:00N 40°03' E 002°01'713.8
2017-Sep-25 19:30N 39°57' E 001°55'713.3
2017-Sep-25 19:00N 39°52' E 001°49'713.4
2017-Sep-25 18:30N 39°48' E 001°43'713.7
2017-Sep-25 18:00N 39°42' E 001°37'813.6
2017-Sep-25 17:24N 39°36' E 001°30'513.6
2017-Sep-25 17:00N 39°32' E 001°25'814.1
2017-Sep-25 16:28N 39°26' E 001°19'614.2
2017-Sep-25 16:00N 39°22' E 001°13'714.1
2017-Sep-25 15:30N 39°16' E 001°07'714.4
2017-Sep-25 15:00N 39°11' E 001°01'914.4
2017-Sep-25 14:24N 39°05' E 000°54'613.7
2017-Sep-25 13:59N 39°00' E 000°49'1012.3
2017-Sep-25 13:09N 38°52' E 000°40'2 4.8
2017-Sep-25 12:50N 38°51' E 000°39'1813.6
2017-Sep-25 11:32N 38°37' E 000°26'112.8
2017-Sep-25 11:28N 38°36' E 000°25'1112.1
2017-Sep-25 10:35N 38°28' E 000°16'313.5
2017-Sep-25 10:23N 38°26' E 000°14'3212.9
2017-Sep-25 07:56N 37°60' W 000°08'2112.9
2017-Sep-25 06:18N 37°42' W 000°23'413.1
2017-Sep-25 05:59N 37°39' W 000°26'613.3
2017-Sep-25 05:30N 37°33' W 000°31'913.3
2017-Sep-25 04:49N 37°27' W 000°39'413.3
2017-Sep-25 04:30N 37°25' W 000°43'1113.2
2017-Sep-25 03:42N 37°17' W 000°53'2613.1
2017-Sep-25 01:41N 36°60' W 001°17'312.8
2017-Sep-25 01:27N 36°58' W 001°20'612.7
2017-Sep-25 00:57N 36°54' W 001°26'612.3
2017-Sep-25 00:28N 36°50' W 001°32'18513.3
2017-Sep-24 10:36N 36°00' W 005°13'113.0
2017-Sep-24 10:30N 36°00' W 005°14'713.7
2017-Sep-24 10:00N 35°59' W 005°23'17612.9
2017-Sep-23 20:22N 36°29' W 008°58'912.9
2017-Sep-23 19:39N 36°31' W 009°09'  
2017-Sep-21 06:38N 48°11' W 005°29'28 9.7
2017-Sep-21 03:43N 48°38' W 005°16'3 8.0
2017-Sep-21 03:22N 48°40' W 005°12'3 8.3
2017-Sep-21 03:00N 48°41' W 005°08'5 8.9
2017-Sep-21 02:29N 48°42' W 005°01'5 9.5
2017-Sep-21 02:00N 48°44' W 004°55'510.3
2017-Sep-21 01:29N 48°46' W 004°47'511.2
2017-Sep-21 01:00N 48°48' W 004°40'4513.4
2017-Sep-20 21:38N 49°05' W 003°37'613.1
2017-Sep-20 21:11N 49°08' W 003°28'612.6
2017-Sep-20 20:42N 49°10' W 003°20'212.3
2017-Sep-20 20:31N 49°11' W 003°16'1011.5
2017-Sep-20 19:41N 49°15' W 003°03'24 9.3
2017-Sep-20 17:09N 49°25' W 002°30'1 6.4
2017-Sep-20 16:57N 49°26' W 002°30'2 0.2
2017-Sep-20 06:30N 49°27' W 002°32'3 6.4
2017-Sep-20 06:00N 49°24' W 002°31'713.3
2017-Sep-20 05:30N 49°23' W 002°41'912.3
2017-Sep-20 04:48N 49°22' W 002°54'2 3.6
2017-Sep-20 04:20N 49°20' W 002°55'3 7.5
2017-Sep-20 03:55N 49°23' W 002°56'12 7.3
2017-Sep-20 02:19N 49°35' W 002°59'12 9.5
2017-Sep-20 01:03N 49°44' W 003°10'410.5
2017-Sep-20 00:43N 49°48' W 003°08'310.5
2017-Sep-20 00:27N 49°51' W 003°07'510.7
2017-Sep-19 23:58N 49°55' W 003°04'5 9.9
2017-Sep-19 23:30N 49°58' W 002°58'50 8.5
2017-Sep-19 17:41N 50°14' W 001°45'3 8.3
2017-Sep-19 17:23N 50°15' W 001°41'5111.4
2017-Sep-19 12:52N 50°27' W 000°23'513.0
2017-Sep-19 12:30N 50°28' W 000°15'612.9
2017-Sep-19 12:00N 50°30' W 000°05'612.5
2017-Sep-19 11:30N 50°31' E 000°04'612.1
2017-Sep-19 11:00N 50°32' E 000°13'1011.4
2017-Sep-19 10:09N 50°35' E 000°28'210.9
2017-Sep-19 10:00N 50°36' E 000°30'510.6
2017-Sep-19 09:29N 50°38' E 000°38'510.6
2017-Sep-19 09:01N 50°41' E 000°45'510.7
2017-Sep-19 08:31N 50°45' E 000°51'611.0
2017-Sep-19 08:01N 50°48' E 000°58'1412.4
2017-Sep-19 06:54N 50°57' E 001°14'614.2
2017-Sep-19 06:30N 51°01' E 001°21'714.7
2017-Sep-19 06:00N 51°05' E 001°30'714.6
2017-Sep-19 05:31N 51°10' E 001°39'713.3
2017-Sep-19 05:00N 51°15' E 001°47'612.8
2017-Sep-19 04:30N 51°21' E 001°51'611.6
2017-Sep-19 04:00N 51°26' E 001°55'510.9
2017-Sep-19 03:30N 51°30' E 002°01'510.5
2017-Sep-19 03:00N 51°34' E 002°06'510.3
2017-Sep-19 02:30N 51°38' E 002°12'510.1
2017-Sep-19 02:00N 51°41' E 002°18'5 9.6
2017-Sep-19 01:30N 51°45' E 002°23'  
Track history (hours):
 
Tides and Currents Weather Stations Pressure Air Temp Water Temp Dewpoint Dewpoint Depression Visibility Wind Speed Wind Dir Waves Ship Positions

Caipirinha

Last reported at 2017-Sep-27 14:04 UTC. Time now 2017-Oct-22 12:13 UTC.
Position N 43°03' E 005°37'.
Warning: this ship's position is 24 days out of date.

Length 60 m; draft 3.5 m.

Type: Pleasure craft. MMSI: 319011100.

Date/timePositionNaut miles runAvg speedWind from/ knotsBaromVisibWave heightAir tempDewpointWater temp
2017-Sep-27 14:04N 43°03' E 005°37'113.0
2017-Sep-27 14:00N 43°03' E 005°37'611.2
2017-Sep-27 13:28N 43°09' E 005°38'172 4.9
2017-Sep-26 02:21N 40°58' E 003°06'410.2
2017-Sep-26 01:59N 40°56' E 003°03'510.2
2017-Sep-26 01:30N 40°52' E 002°58'510.7
2017-Sep-26 01:00N 40°48' E 002°53'611.7
2017-Sep-26 00:30N 40°44' E 002°48'612.1
2017-Sep-26 00:00N 40°39' E 002°43'611.9
2017-Sep-25 23:30N 40°35' E 002°38'611.6
2017-Sep-25 23:00N 40°30' E 002°33'611.4
2017-Sep-25 22:30N 40°26' E 002°28'611.3
2017-Sep-25 22:00N 40°22' E 002°23'611.6
2017-Sep-25 21:30N 40°17' E 002°18'612.8
2017-Sep-25 21:00N 40°13' E 002°13'713.3
2017-Sep-25 20:30N 40°08' E 002°07'713.8
2017-Sep-25 20:00N 40°03' E 002°01'713.8
2017-Sep-25 19:30N 39°57' E 001°55'713.3
2017-Sep-25 19:00N 39°52' E 001°49'713.4
2017-Sep-25 18:30N 39°48' E 001°43'713.7
2017-Sep-25 18:00N 39°42' E 001°37'813.6
2017-Sep-25 17:24N 39°36' E 001°30'513.6
2017-Sep-25 17:00N 39°32' E 001°25'814.1
2017-Sep-25 16:28N 39°26' E 001°19'614.2
2017-Sep-25 16:00N 39°22' E 001°13'714.1
2017-Sep-25 15:30N 39°16' E 001°07'714.4
2017-Sep-25 15:00N 39°11' E 001°01'914.4
2017-Sep-25 14:24N 39°05' E 000°54'613.7
2017-Sep-25 13:59N 39°00' E 000°49'1012.3
2017-Sep-25 13:09N 38°52' E 000°40'2 4.8
2017-Sep-25 12:50N 38°51' E 000°39'1813.6
2017-Sep-25 11:32N 38°37' E 000°26'112.8
2017-Sep-25 11:28N 38°36' E 000°25'1112.1
2017-Sep-25 10:35N 38°28' E 000°16'313.5
2017-Sep-25 10:23N 38°26' E 000°14'3212.9
2017-Sep-25 07:56N 37°60' W 000°08'2112.9
2017-Sep-25 06:18N 37°42' W 000°23'413.1
2017-Sep-25 05:59N 37°39' W 000°26'613.3
2017-Sep-25 05:30N 37°33' W 000°31'913.3
2017-Sep-25 04:49N 37°27' W 000°39'413.3
2017-Sep-25 04:30N 37°25' W 000°43'1113.2
2017-Sep-25 03:42N 37°17' W 000°53'2613.1
2017-Sep-25 01:41N 36°60' W 001°17'312.8
2017-Sep-25 01:27N 36°58' W 001°20'612.7
2017-Sep-25 00:57N 36°54' W 001°26'612.3
2017-Sep-25 00:28N 36°50' W 001°32'18513.3
2017-Sep-24 10:36N 36°00' W 005°13'113.0
2017-Sep-24 10:30N 36°00' W 005°14'713.7
2017-Sep-24 10:00N 35°59' W 005°23'17612.9
2017-Sep-23 20:22N 36°29' W 008°58'912.9
2017-Sep-23 19:39N 36°31' W 009°09'  
2017-Sep-21 06:38N 48°11' W 005°29'28 9.7
2017-Sep-21 03:43N 48°38' W 005°16'3 8.0
2017-Sep-21 03:22N 48°40' W 005°12'3 8.3
2017-Sep-21 03:00N 48°41' W 005°08'5 8.9
2017-Sep-21 02:29N 48°42' W 005°01'5 9.5
2017-Sep-21 02:00N 48°44' W 004°55'510.3
2017-Sep-21 01:29N 48°46' W 004°47'511.2
2017-Sep-21 01:00N 48°48' W 004°40'4513.4
2017-Sep-20 21:38N 49°05' W 003°37'613.1
2017-Sep-20 21:11N 49°08' W 003°28'612.6
2017-Sep-20 20:42N 49°10' W 003°20'212.3
2017-Sep-20 20:31N 49°11' W 003°16'1011.5
2017-Sep-20 19:41N 49°15' W 003°03'24 9.3
2017-Sep-20 17:09N 49°25' W 002°30'1 6.4
2017-Sep-20 16:57N 49°26' W 002°30'2 0.2
2017-Sep-20 06:30N 49°27' W 002°32'3 6.4
2017-Sep-20 06:00N 49°24' W 002°31'713.3
2017-Sep-20 05:30N 49°23' W 002°41'912.3
2017-Sep-20 04:48N 49°22' W 002°54'2 3.6
2017-Sep-20 04:20N 49°20' W 002°55'3 7.5
2017-Sep-20 03:55N 49°23' W 002°56'12 7.3
2017-Sep-20 02:19N 49°35' W 002°59'12 9.5
2017-Sep-20 01:03N 49°44' W 003°10'410.5
2017-Sep-20 00:43N 49°48' W 003°08'310.5
2017-Sep-20 00:27N 49°51' W 003°07'510.7
2017-Sep-19 23:58N 49°55' W 003°04'5 9.9
2017-Sep-19 23:30N 49°58' W 002°58'50 8.5
2017-Sep-19 17:41N 50°14' W 001°45'3 8.3
2017-Sep-19 17:23N 50°15' W 001°41'5111.4
2017-Sep-19 12:52N 50°27' W 000°23'513.0
2017-Sep-19 12:30N 50°28' W 000°15'612.9
2017-Sep-19 12:00N 50°30' W 000°05'612.5
2017-Sep-19 11:30N 50°31' E 000°04'612.1
2017-Sep-19 11:00N 50°32' E 000°13'1011.4
2017-Sep-19 10:09N 50°35' E 000°28'210.9
2017-Sep-19 10:00N 50°36' E 000°30'510.6
2017-Sep-19 09:29N 50°38' E 000°38'510.6
2017-Sep-19 09:01N 50°41' E 000°45'510.7
2017-Sep-19 08:31N 50°45' E 000°51'611.0
2017-Sep-19 08:01N 50°48' E 000°58'1412.4
2017-Sep-19 06:54N 50°57' E 001°14'614.2
2017-Sep-19 06:30N 51°01' E 001°21'714.7
2017-Sep-19 06:00N 51°05' E 001°30'714.6
2017-Sep-19 05:31N 51°10' E 001°39'713.3
2017-Sep-19 05:00N 51°15' E 001°47'612.8
2017-Sep-19 04:30N 51°21' E 001°51'611.6
2017-Sep-19 04:00N 51°26' E 001°55'510.9
2017-Sep-19 03:30N 51°30' E 002°01'510.5
2017-Sep-19 03:00N 51°34' E 002°06'510.3
2017-Sep-19 02:30N 51°38' E 002°12'510.1
2017-Sep-19 02:00N 51°41' E 002°18'5 9.6
2017-Sep-19 01:30N 51°45' E 002°23'  

Dump ship's entire track history